Jwaneng, Botswana
Current Conditions -  °F | °C
As of 2:00 AM on Sunday 23 Nov 2014 (Local Time) from FBSK Reporting Station
Light Rain Light Rain  
Wind Chill: 64°   Ceiling: 7000
Heat Index: 64°   Visibility: 6mi
Dew Point: 61°   Wind: 14mph
Humidity: 88%   Direction: 250°WSW
Pressure: 30.15"   Gusts: NA
Location:  24.6°S, 24.67°E
Report Text: FBSK 230000Z 25012KT 9999 -RA FEW020 FEW030CB BKN070 18/16 Q1021 NOSIG
Loading
Personal Weather Stations






























Interactive Weather Map New forecast layout! Learn more

10-Day Weather Forecast

Advertisements
Track Severe Weather on mobile